Time;durP1;ratioP1;P1;durP2;ratioP2;P2;SDS_P1;SDS_P2;PMS_P1;PMS_P2;Temp;Humidity;BMP_temperature;BMP_pressure;BME280_temperature;BME280_humidity;BME280_pressure;Samples;Min_cycle;Max_cycle;Signal;HPM_P1;HPM_P2
2021/12/04 00:02:01;;;;;;;27.98;18.83;;;4.30;99.90;;;;;;5066773;28;20047;-79
2021/12/04 00:04:30;;;;;;;28.52;18.30;;;4.30;99.90;;;;;;5080360;28;20103;-79
2021/12/04 00:06:57;;;;;;;25.25;18.73;;;4.30;99.90;;;;;;5059156;28;20519;-79
2021/12/04 00:09:24;;;;;;;24.85;17.80;;;4.30;99.90;;;;;;5066052;28;20049;-79
2021/12/04 00:11:55;;;;;;;28.00;18.52;;;4.30;99.90;;;;;;5068073;28;20083;-79
2021/12/04 00:14:22;;;;;;;28.02;17.73;;;4.30;99.90;;;;;;5061844;28;20224;-78
2021/12/04 00:16:48;;;;;;;25.27;17.50;;;4.30;99.90;;;;;;5067161;28;20051;-79
2021/12/04 00:19:15;;;;;;;25.90;17.52;;;4.30;99.90;;;;;;5057788;28;20053;-79
2021/12/04 00:21:41;;;;;;;27.67;18.52;;;4.30;99.90;;;;;;5062490;28;20048;-80
2021/12/04 00:24:08;;;;;;;32.17;19.70;;;4.30;99.90;;;;;;5062258;28;20545;-79
2021/12/04 00:26:34;;;;;;;30.65;18.40;;;4.30;99.90;;;;;;5064446;28;20047;-79
2021/12/04 00:29:01;;;;;;;26.45;18.45;;;4.30;99.90;;;;;;5068466;28;20057;-79
2021/12/04 00:31:27;;;;;;;28.02;19.10;;;4.30;99.90;;;;;;5064796;28;20076;-80
2021/12/04 00:33:54;;;;;;;27.75;18.38;;;4.30;99.90;;;;;;5061335;28;20041;-80
2021/12/04 00:36:28;;;;;;;29.77;19.75;;;4.30;99.90;;;;;;5058096;28;20049;-79
2021/12/04 00:49:51;;;;;;;31.83;18.75;;;4.30;99.90;;;;;;5088570;28;20491;-79
2021/12/04 00:52:18;;;;;;;31.02;20.00;;;4.30;99.90;;;;;;5064379;28;20053;-80
2021/12/04 00:54:45;;;;;;;33.08;21.77;;;4.30;99.90;;;;;;5061598;28;20036;-80
2021/12/04 00:57:12;;;;;;;39.13;22.02;;;4.30;99.90;;;;;;5069309;28;20053;-79
2021/12/04 00:59:38;;;;;;;39.33;22.45;;;4.30;99.90;;;;;;5064550;28;20052;-79
2021/12/04 01:02:05;;;;;;;37.20;21.23;;;4.30;99.90;;;;;;5064296;28;20048;-79
2021/12/04 01:04:31;;;;;;;33.22;20.10;;;4.30;99.90;;;;;;5067957;28;20052;-80
2021/12/04 01:06:58;;;;;;;37.42;22.25;;;4.20;99.90;;;;;;5061167;28;20048;-80
2021/12/04 01:09:24;;;;;;;40.03;22.35;;;4.20;99.90;;;;;;5068961;28;20399;-79
2021/12/04 01:11:51;;;;;;;34.08;21.73;;;4.20;99.90;;;;;;5066026;28;20048;-80
2021/12/04 01:14:17;;;;;;;40.05;21.38;;;4.30;99.90;;;;;;5068766;28;20064;-80
2021/12/04 01:16:44;;;;;;;40.47;23.45;;;4.30;99.90;;;;;;5064081;28;20053;-80
2021/12/04 01:19:10;;;;;;;33.72;20.80;;;4.20;99.90;;;;;;5069363;28;20057;-80
2021/12/04 01:21:37;;;;;;;42.08;24.10;;;4.20;99.90;;;;;;5062300;28;20040;-80
2021/12/04 01:24:04;;;;;;;35.72;21.38;;;4.20;99.90;;;;;;5059509;28;20059;-80
2021/12/04 01:26:30;;;;;;;34.42;21.42;;;4.20;99.90;;;;;;5070386;28;20057;-79
2021/12/04 01:28:57;;;;;;;41.63;22.27;;;4.20;99.90;;;;;;5060166;28;20045;-80
2021/12/04 01:31:23;;;;;;;35.78;22.05;;;4.20;99.90;;;;;;5063985;28;20057;-80
2021/12/04 01:33:50;;;;;;;39.53;21.73;;;4.20;99.90;;;;;;5067381;28;20048;-80
2021/12/04 01:36:16;;;;;;;39.60;22.80;;;4.20;99.90;;;;;;5068740;28;20056;-79
2021/12/04 01:38:43;;;;;;;45.00;21.33;;;4.20;99.90;;;;;;5071280;28;20055;-79
2021/12/04 01:41:09;;;;;;;38.65;22.52;;;4.20;99.90;;;;;;5071379;28;20055;-80
2021/12/04 01:43:36;;;;;;;37.17;21.17;;;4.20;99.90;;;;;;5065896;28;20056;-80
2021/12/04 01:46:02;;;;;;;36.55;22.48;;;4.20;99.90;;;;;;5063079;28;20052;-80
2021/12/04 01:48:29;;;;;;;43.15;20.20;;;4.20;99.90;;;;;;5072352;28;20475;-80
2021/12/04 01:50:56;;;;;;;37.28;21.65;;;4.20;99.90;;;;;;5063841;28;20472;-80
2021/12/04 01:53:22;;;;;;;36.45;21.30;;;4.20;99.90;;;;;;5066325;28;20052;-80
2021/12/04 01:55:49;;;;;;;41.17;22.58;;;4.20;99.90;;;;;;5057821;28;20041;-80
2021/12/04 01:58:15;;;;;;;36.28;22.20;;;4.20;99.90;;;;;;5057513;28;20053;-80
2021/12/04 02:00:42;;;;;;;34.63;20.80;;;4.20;99.90;;;;;;5061592;28;20123;-80
2021/12/04 02:03:09;;;;;;;35.72;21.75;;;4.20;99.90;;;;;;5069124;28;20052;-80
2021/12/04 02:05:37;;;;;;;40.85;21.35;;;4.20;99.90;;;;;;5070060;28;20051;-81
2021/12/04 02:08:04;;;;;;;41.42;21.00;;;4.20;99.90;;;;;;5061242;28;20078;-80
2021/12/04 02:10:30;;;;;;;41.72;21.98;;;4.20;99.90;;;;;;5063469;28;20060;-81
2021/12/04 02:12:57;;;;;;;39.28;21.30;;;4.10;99.90;;;;;;5064358;28;20052;-82
2021/12/04 02:15:23;;;;;;;40.10;21.70;;;4.20;99.90;;;;;;5059344;28;20056;-82
2021/12/04 02:17:50;;;;;;;39.30;21.10;;;4.10;99.90;;;;;;5062883;28;20040;-82
2021/12/04 02:20:17;;;;;;;37.97;19.83;;;4.20;99.90;;;;;;5061910;28;20061;-81
2021/12/04 02:22:43;;;;;;;39.70;22.63;;;4.20;99.90;;;;;;5061476;28;20049;-81
2021/12/04 02:25:10;;;;;;;34.83;20.50;;;4.20;99.90;;;;;;5060947;28;20056;-81
2021/12/04 02:27:36;;;;;;;32.58;19.05;;;4.20;99.90;;;;;;5063542;28;20051;-81
2021/12/04 02:30:03;;;;;;;35.63;21.02;;;4.20;99.90;;;;;;5060527;28;20049;-81
2021/12/04 02:32:31;;;;;;;35.90;20.33;;;4.20;99.90;;;;;;5061445;28;20053;-81
2021/12/04 02:34:57;;;;;;;39.67;21.40;;;4.20;99.90;;;;;;5053604;28;20385;-81
2021/12/04 02:37:24;;;;;;;41.33;21.05;;;4.10;99.90;;;;;;5066401;28;20049;-81
2021/12/04 02:39:57;;;;;;;38.72;18.77;;;4.10;99.90;;;;;;5069807;28;20486;-82
2021/12/04 02:42:24;;;;;;;42.97;20.67;;;4.20;99.90;;;;;;5062413;28;20056;-81
2021/12/04 02:44:51;;;;;;;36.40;20.88;;;4.20;99.90;;;;;;5068348;28;20503;-82
2021/12/04 02:47:17;;;;;;;38.75;19.45;;;4.20;99.90;;;;;;5063777;28;20055;-81
2021/12/04 02:49:44;;;;;;;41.42;20.35;;;4.10;99.90;;;;;;5065476;28;20498;-82
2021/12/04 02:52:10;;;;;;;34.38;19.98;;;4.20;99.90;;;;;;5055048;28;20040;-81
2021/12/04 02:54:37;;;;;;;34.67;19.40;;;4.20;99.90;;;;;;5070198;28;20060;-82
2021/12/04 02:57:03;;;;;;;36.35;20.77;;;4.20;99.90;;;;;;5061646;28;20064;-81
2021/12/04 02:59:31;;;;;;;31.35;19.15;;;4.20;99.90;;;;;;5066367;28;20048;-82
2021/12/04 03:01:58;;;;;;;35.60;19.80;;;4.10;99.90;;;;;;5058785;28;20041;-81
2021/12/04 03:04:25;;;;;;;30.73;18.58;;;4.10;99.90;;;;;;5064297;28;20052;-81
2021/12/04 03:06:51;;;;;;;37.05;20.50;;;4.10;99.90;;;;;;5056932;28;20109;-81
2021/12/04 03:09:18;;;;;;;36.20;20.52;;;4.20;99.90;;;;;;5061698;28;20407;-81
2021/12/04 03:11:44;;;;;;;43.90;21.23;;;4.20;99.90;;;;;;5065567;28;20053;-81
2021/12/04 03:14:11;;;;;;;32.03;19.08;;;4.10;99.90;;;;;;5058388;28;20416;-81
2021/12/04 03:16:38;;;;;;;33.42;19.98;;;4.20;99.90;;;;;;5063214;28;20495;-81
2021/12/04 03:19:04;;;;;;;30.70;19.13;;;4.20;99.90;;;;;;5065285;28;20080;-81
2021/12/04 03:21:31;;;;;;;30.85;19.48;;;4.20;99.90;;;;;;5061728;28;20044;-81
2021/12/04 03:24:00;;;;;;;31.70;18.88;;;4.20;99.90;;;;;;5061580;28;20048;-81
2021/12/04 03:26:27;;;;;;;34.45;19.98;;;4.10;99.90;;;;;;5062388;28;20167;-81
2021/12/04 03:28:55;;;;;;;34.13;20.52;;;4.20;99.90;;;;;;5065382;28;20044;-81
2021/12/04 03:31:27;;;;;;;33.97;19.80;;;4.10;99.90;;;;;;5058713;28;20123;-81
2021/12/04 03:42:06;;;;;;;26.08;16.52;;;4.10;99.90;;;;;;5061107;28;20510;-81
2021/12/04 03:44:33;;;;;;;24.85;15.77;;;4.20;99.90;;;;;;5067336;28;20484;-81
2021/12/04 03:46:59;;;;;;;30.33;17.77;;;4.10;99.90;;;;;;5065335;28;20059;-81
2021/12/04 03:49:26;;;;;;;26.48;15.73;;;4.10;99.90;;;;;;5083398;28;20131;-81
2021/12/04 03:51:52;;;;;;;26.80;16.42;;;4.10;99.90;;;;;;5065776;28;20054;-81
2021/12/04 03:54:19;;;;;;;28.30;17.10;;;4.10;99.90;;;;;;5069594;28;20044;-81
2021/12/04 03:56:45;;;;;;;24.30;16.73;;;4.10;99.90;;;;;;5064977;28;20073;-81
2021/12/04 03:59:12;;;;;;;31.35;15.63;;;4.10;99.90;;;;;;5064297;28;20044;-81
2021/12/04 04:01:38;;;;;;;26.80;16.33;;;4.10;99.90;;;;;;5061494;28;20052;-80
2021/12/04 04:04:05;;;;;;;22.05;15.13;;;4.20;99.90;;;;;;5063607;28;20049;-81
2021/12/04 04:06:31;;;;;;;23.75;15.30;;;4.10;99.90;;;;;;5066692;28;20041;-81
2021/12/04 04:08:58;;;;;;;26.30;15.32;;;4.10;99.90;;;;;;5062543;28;20041;-81
2021/12/04 04:11:25;;;;;;;31.83;15.65;;;4.10;99.90;;;;;;5063111;28;20501;-81
2021/12/04 04:13:51;;;;;;;22.88;14.68;;;4.10;99.90;;;;;;5058035;28;20080;-81
2021/12/04 04:16:18;;;;;;;22.02;14.75;;;4.10;99.90;;;;;;5062948;28;20098;-81
2021/12/04 04:18:44;;;;;;;25.33;14.65;;;4.10;99.90;;;;;;5051262;28;20045;-81
2021/12/04 04:21:11;;;;;;;22.40;14.77;;;4.00;99.90;;;;;;5062035;28;20053;-82
2021/12/04 04:23:37;;;;;;;20.65;14.18;;;4.10;99.90;;;;;;5055809;28;20057;-81
2021/12/04 04:26:04;;;;;;;17.80;13.02;;;4.10;99.90;;;;;;5063884;28;20457;-81
2021/12/04 04:28:31;;;;;;;20.50;13.13;;;4.00;99.90;;;;;;5066324;28;20064;-81
2021/12/04 04:30:57;;;;;;;23.42;13.93;;;4.00;99.90;;;;;;5063743;28;20060;-81
2021/12/04 04:33:24;;;;;;;20.83;13.10;;;4.10;99.90;;;;;;5069706;28;20060;-82
2021/12/04 04:36:03;;;;;;;22.40;13.05;;;4.10;99.90;;;;;;5051702;28;20123;-82
2021/12/04 04:38:38;;;;;;;19.23;13.40;;;4.00;99.90;;;;;;5056281;28;20059;-81
2021/12/04 04:58:01;;;;;;;27.27;14.32;;;4.10;99.90;;;;;;5040774;28;20060;-81
2021/12/04 05:11:19;;;;;;;21.75;13.90;;;4.00;99.90;;;;;;5064994;28;20075;-81
2021/12/04 05:13:46;;;;;;;23.73;14.77;;;4.00;99.90;;;;;;5063123;28;20411;-80
2021/12/04 05:16:14;;;;;;;21.10;12.88;;;4.00;99.90;;;;;;5060300;28;20186;-81
2021/12/04 05:18:42;;;;;;;27.30;13.75;;;4.00;99.90;;;;;;5069089;28;20045;-81
2021/12/04 05:21:11;;;;;;;20.42;13.63;;;4.00;99.90;;;;;;5056394;28;20049;-81
2021/12/04 05:23:37;;;;;;;23.98;13.63;;;4.00;99.90;;;;;;5058948;28;20084;-82
2021/12/04 05:26:04;;;;;;;19.77;12.90;;;4.00;99.90;;;;;;5067647;28;20048;-81
2021/12/04 05:28:31;;;;;;;21.10;13.45;;;4.00;99.90;;;;;;5064911;28;20063;-81
2021/12/04 05:30:57;;;;;;;24.08;13.32;;;4.00;99.90;;;;;;5072213;28;20064;-81
2021/12/04 05:33:24;;;;;;;20.23;12.65;;;4.00;99.90;;;;;;5068137;28;20048;-81
2021/12/04 05:35:50;;;;;;;26.42;12.60;;;4.00;99.90;;;;;;5063915;28;20040;-79
2021/12/04 05:38:17;;;;;;;20.15;12.32;;;4.00;99.90;;;;;;5054995;28;20060;-80
2021/12/04 05:40:43;;;;;;;24.17;13.90;;;4.00;99.90;;;;;;5062276;28;20049;-80
2021/12/04 05:43:10;;;;;;;18.40;12.90;;;4.00;99.90;;;;;;5059536;28;20044;-80
2021/12/04 05:45:40;;;;;;;18.88;13.48;;;4.00;99.90;;;;;;5060170;28;20056;-79
2021/12/04 05:48:10;;;;;;;24.47;12.97;;;4.00;99.90;;;;;;5067273;28;20149;-80
2021/12/04 05:50:54;;;;;;;23.03;13.77;;;4.00;99.90;;;;;;5079798;28;20066;-80
2021/12/04 05:53:23;;;;;;;20.10;12.07;;;4.00;99.90;;;;;;5063988;28;20130;-79
2021/12/04 05:55:53;;;;;;;28.55;13.15;;;4.00;99.90;;;;;;5070271;28;20044;-79
2021/12/04 05:58:19;;;;;;;25.08;13.63;;;4.00;99.90;;;;;;5068595;28;20056;-80
2021/12/04 06:00:46;;;;;;;20.23;12.80;;;4.00;99.90;;;;;;5059372;28;20106;-79
2021/12/04 06:03:13;;;;;;;27.48;14.05;;;4.00;99.90;;;;;;5065169;28;20048;-80
2021/12/04 06:05:39;;;;;;;17.90;11.80;;;4.00;99.90;;;;;;5060319;28;20044;-80
2021/12/04 06:08:06;;;;;;;26.70;12.98;;;3.90;99.90;;;;;;5066708;28;20508;-80
2021/12/04 06:10:32;;;;;;;23.25;13.43;;;4.00;99.90;;;;;;5057753;28;20425;-80
2021/12/04 06:12:59;;;;;;;22.80;13.27;;;3.90;99.90;;;;;;5059424;28;20477;-80
2021/12/04 06:15:25;;;;;;;32.13;12.55;;;3.90;99.90;;;;;;5069255;28;20055;-80
2021/12/04 06:17:54;;;;;;;18.42;12.00;;;3.90;99.90;;;;;;5053637;28;20048;-79
2021/12/04 06:23:04;;;;;;;21.63;12.88;;;3.80;99.90;;;;;;5059800;28;20484;-80
2021/12/04 06:25:31;;;;;;;18.42;12.00;;;3.90;99.90;;;;;;5056512;28;20041;-79
2021/12/04 06:27:57;;;;;;;24.95;13.55;;;4.00;99.90;;;;;;5055691;28;20115;-80
2021/12/04 06:30:25;;;;;;;30.65;14.43;;;3.90;99.90;;;;;;5065905;28;20052;-83
2021/12/04 06:32:52;;;;;;;31.77;14.25;;;3.90;99.90;;;;;;5065310;28;20052;-78
2021/12/04 06:35:19;;;;;;;28.52;14.65;;;3.90;99.90;;;;;;5064152;28;20095;-79
2021/12/04 06:37:45;;;;;;;25.45;14.15;;;3.90;99.90;;;;;;5065261;28;20045;-80
2021/12/04 06:40:12;;;;;;;24.88;12.30;;;3.90;99.90;;;;;;5069322;28;20049;-79
2021/12/04 06:42:39;;;;;;;26.60;13.50;;;3.90;99.90;;;;;;5061420;28;20052;-79
2021/12/04 06:45:05;;;;;;;25.52;13.73;;;3.90;99.90;;;;;;5065670;28;20411;-80
2021/12/04 06:47:33;;;;;;;26.35;12.75;;;3.90;99.90;;;;;;5065397;28;20606;-80
2021/12/04 06:50:04;;;;;;;25.27;14.52;;;3.90;99.90;;;;;;5062119;28;20049;-80
2021/12/04 06:52:31;;;;;;;25.35;14.75;;;3.90;99.90;;;;;;5058977;28;20369;-79
2021/12/04 06:54:59;;;;;;;19.60;12.07;;;3.90;99.90;;;;;;5068596;28;20129;-79
2021/12/04 06:57:25;;;;;;;32.08;15.07;;;3.90;99.90;;;;;;5062593;28;20566;-80
2021/12/04 06:59:54;;;;;;;27.63;15.23;;;3.90;99.90;;;;;;5065683;28;20040;-78
2021/12/04 07:02:20;;;;;;;25.40;13.32;;;3.90;99.90;;;;;;5060553;28;20149;-80
2021/12/04 07:04:47;;;;;;;22.48;12.48;;;3.90;99.90;;;;;;5067957;28;20506;-79
2021/12/04 07:07:13;;;;;;;25.00;13.60;;;3.90;99.90;;;;;;5056941;28;20480;-79
2021/12/04 07:09:40;;;;;;;30.02;14.38;;;3.90;99.90;;;;;;5061018;28;20044;-80
2021/12/04 07:12:06;;;;;;;24.98;12.77;;;3.90;99.90;;;;;;5064810;28;20055;-78
2021/12/04 07:14:33;;;;;;;27.60;14.82;;;3.90;99.90;;;;;;5060358;28;20047;-79
2021/12/04 07:17:02;;;;;;;26.85;13.18;;;3.90;99.90;;;;;;5060285;28;20504;-78
2021/12/04 07:19:28;;;;;;;23.60;13.25;;;3.90;99.90;;;;;;5061795;28;20059;-79
2021/12/04 07:21:55;;;;;;;25.30;13.98;;;3.90;99.90;;;;;;5059807;28;20044;-78
2021/12/04 07:24:22;;;;;;;24.10;12.98;;;3.90;99.90;;;;;;5060694;28;20060;-79
2021/12/04 07:26:48;;;;;;;22.20;13.32;;;3.90;99.90;;;;;;5058432;28;20468;-79
2021/12/04 07:29:15;;;;;;;29.48;13.63;;;4.00;99.90;;;;;;5063209;28;20651;-79
2021/12/04 07:31:41;;;;;;;25.60;14.32;;;3.90;99.90;;;;;;5061875;28;20517;-80
2021/12/04 07:34:08;;;;;;;33.88;13.98;;;3.90;99.90;;;;;;5056959;28;20062;-79
2021/12/04 07:36:34;;;;;;;29.02;13.45;;;3.90;99.90;;;;;;5064507;28;20045;-79
2021/12/04 07:39:01;;;;;;;30.83;14.40;;;3.90;99.90;;;;;;5057677;28;20048;-80
2021/12/04 07:41:27;;;;;;;26.50;13.15;;;3.90;99.90;;;;;;5056837;28;20053;-80
2021/12/04 07:43:54;;;;;;;27.35;14.27;;;3.90;99.90;;;;;;5062420;28;20045;-80
2021/12/04 07:46:20;;;;;;;32.38;15.30;;;3.90;99.90;;;;;;5059285;28;20052;-79
2021/12/04 07:48:47;;;;;;;22.42;14.95;;;3.90;99.90;;;;;;5058885;28;20052;-80
2021/12/04 07:51:13;;;;;;;31.15;14.65;;;3.90;99.90;;;;;;5062724;28;20056;-80
2021/12/04 07:53:40;;;;;;;26.50;14.35;;;3.90;99.90;;;;;;5060446;28;20052;-79
2021/12/04 07:56:07;;;;;;;22.40;13.25;;;3.90;99.90;;;;;;5057497;28;20041;-79
2021/12/04 07:58:34;;;;;;;25.88;14.85;;;3.90;99.90;;;;;;5059182;28;20045;-79
2021/12/04 08:01:00;;;;;;;30.88;15.00;;;3.90;99.90;;;;;;5060172;28;20049;-78
2021/12/04 08:03:27;;;;;;;27.25;16.27;;;4.00;99.90;;;;;;5059796;28;20109;-79
2021/12/04 08:05:53;;;;;;;26.50;16.92;;;4.00;99.90;;;;;;5059525;28;20041;-80
2021/12/04 08:08:20;;;;;;;25.45;16.00;;;4.00;99.90;;;;;;5060445;28;20169;-80
2021/12/04 08:10:47;;;;;;;28.83;17.20;;;4.00;99.90;;;;;;5063350;28;20040;-80
2021/12/04 08:13:13;;;;;;;28.60;16.08;;;4.00;99.90;;;;;;5059056;28;20048;-80
2021/12/04 08:15:40;;;;;;;25.98;16.50;;;4.00;99.90;;;;;;5065148;28;20052;-80
2021/12/04 08:18:08;;;;;;;28.77;15.70;;;4.00;99.90;;;;;;5060838;28;20048;-80
2021/12/04 08:20:34;;;;;;;30.15;15.73;;;4.00;99.90;;;;;;5053393;28;20045;-80
2021/12/04 08:23:01;;;;;;;25.98;15.30;;;4.00;99.90;;;;;;5060402;28;20049;-80
2021/12/04 08:25:27;;;;;;;24.90;14.50;;;4.00;99.90;;;;;;5055347;28;20053;-80
2021/12/04 08:27:54;;;;;;;26.63;15.73;;;4.00;99.90;;;;;;5062418;28;20124;-80
2021/12/04 08:30:21;;;;;;;25.38;15.20;;;4.00;99.90;;;;;;5058769;28;20036;-80
2021/12/04 08:32:48;;;;;;;30.30;15.60;;;4.00;99.90;;;;;;5061816;28;20052;-80
2021/12/04 08:35:15;;;;;;;22.20;14.38;;;4.00;99.90;;;;;;5055125;28;20055;-80
2021/12/04 08:37:42;;;;;;;20.17;14.23;;;4.00;99.90;;;;;;5058034;28;20120;-80
2021/12/04 08:40:11;;;;;;;29.60;15.45;;;4.10;99.90;;;;;;5053880;28;20055;-79
2021/12/04 08:42:37;;;;;;;22.60;13.60;;;4.10;99.90;;;;;;5065501;28;20134;-80
2021/12/04 08:45:04;;;;;;;23.42;14.50;;;4.10;99.90;;;;;;5059486;28;20467;-79
2021/12/04 08:47:30;;;;;;;24.60;14.77;;;4.10;99.90;;;;;;5063017;28;20048;-80
2021/12/04 08:49:57;;;;;;;24.27;13.65;;;4.10;99.90;;;;;;5061314;28;20472;-80
2021/12/04 08:52:23;;;;;;;18.77;12.93;;;4.10;99.90;;;;;;5062511;28;20114;-80
2021/12/04 08:54:50;;;;;;;17.33;12.18;;;4.20;99.90;;;;;;5061848;28;20055;-80
2021/12/04 08:57:17;;;;;;;16.63;12.23;;;4.20;99.90;;;;;;5050314;28;20060;-80
2021/12/04 08:59:45;;;;;;;26.58;13.88;;;4.20;99.90;;;;;;5059418;28;20045;-80
2021/12/04 09:02:12;;;;;;;16.42;11.93;;;4.20;99.90;;;;;;5060433;28;20044;-80
2021/12/04 09:04:40;;;;;;;16.35;10.38;;;4.20;99.90;;;;;;5060407;28;20051;-80
2021/12/04 09:07:06;;;;;;;14.57;10.00;;;4.20;99.90;;;;;;5060891;28;20563;-80
2021/12/04 09:09:33;;;;;;;19.10;11.98;;;4.20;99.90;;;;;;5059986;28;20048;-80
2021/12/04 09:12:00;;;;;;;15.27;11.18;;;4.20;99.90;;;;;;5066622;28;20468;-80
2021/12/04 09:14:26;;;;;;;14.55;11.60;;;4.20;99.90;;;;;;5052995;28;21301;-80
2021/12/04 09:16:53;;;;;;;17.42;10.52;;;4.20;99.90;;;;;;5060012;28;20047;-80
2021/12/04 09:19:20;;;;;;;16.80;11.77;;;4.20;99.90;;;;;;5063305;28;20056;-80
2021/12/04 09:21:46;;;;;;;19.90;11.93;;;4.30;99.90;;;;;;5059881;28;20045;-80
2021/12/04 09:24:14;;;;;;;15.98;11.00;;;4.30;99.90;;;;;;5061873;28;20055;-80
2021/12/04 09:26:48;;;;;;;16.52;11.38;;;4.30;99.90;;;;;;5063116;28;20048;-80
2021/12/04 09:29:34;;;;;;;19.77;11.98;;;4.30;99.90;;;;;;5064541;28;20422;-80
2021/12/04 10:02:25;;;;;;;26.30;13.23;;;4.50;99.90;;;;;;5056649;28;20048;-79
2021/12/04 10:13:35;;;;;;;18.02;11.50;;;4.50;99.90;;;;;;5055630;28;20073;-79
2021/12/04 10:16:14;;;;;;;16.25;12.07;;;4.60;99.90;;;;;;5063396;28;20052;-78
2021/12/04 10:18:54;;;;;;;18.48;11.50;;;4.60;99.90;;;;;;5059507;28;20044;-79
2021/12/04 10:24:13;;;;;;;17.73;11.18;;;4.60;99.90;;;;;;5048325;28;20068;-78
2021/12/04 10:32:36;;;;;;;20.40;12.30;;;4.60;99.90;;;;;;5064515;28;20131;-79
2021/12/04 10:35:03;;;;;;;23.65;15.52;;;4.60;99.90;;;;;;5054224;28;20064;-78
2021/12/04 10:37:30;;;;;;;26.08;15.40;;;4.70;99.90;;;;;;5055751;28;20056;-78
2021/12/04 10:39:57;;;;;;;24.15;16.30;;;4.70;99.90;;;;;;5055458;28;20123;-79
2021/12/04 10:42:26;;;;;;;25.00;15.27;;;4.60;99.90;;;;;;5054141;28;20501;-78
2021/12/04 10:44:53;;;;;;;32.00;18.02;;;4.60;99.90;;;;;;5061186;28;20510;-79
2021/12/04 10:47:23;;;;;;;35.65;19.73;;;4.70;99.90;;;;;;5054732;28;20048;-78
2021/12/04 10:49:55;;;;;;;31.65;18.60;;;4.70;99.90;;;;;;5063396;28;21341;-79
2021/12/04 10:52:23;;;;;;;31.65;18.80;;;4.70;99.90;;;;;;5054180;28;20045;-78
2021/12/04 10:54:53;;;;;;;35.75;18.92;;;4.70;99.90;;;;;;5062112;28;20113;-79
2021/12/04 10:57:55;;;;;;;36.45;21.75;;;4.70;99.90;;;;;;5057329;28;20752;-78
2021/12/04 11:00:32;;;;;;;32.15;20.13;;;4.70;99.90;;;;;;5055968;28;20076;-78
2021/12/04 11:03:04;;;;;;;38.13;20.10;;;4.70;99.90;;;;;;5058361;28;20102;-79
2021/12/04 11:06:03;;;;;;;34.70;21.40;;;4.70;99.90;;;;;;5055895;28;20040;-78
2021/12/04 11:20:06;;;;;;;46.08;23.70;;;4.70;99.90;;;;;;5054101;28;20048;-78
2021/12/04 11:22:39;;;;;;;41.97;23.70;;;4.70;99.90;;;;;;5055681;28;20055;-78
2021/12/04 11:28:14;;;;;;;48.97;26.13;;;4.60;99.90;;;;;;5059158;28;20072;-79
2021/12/04 11:38:52;;;;;;;44.95;23.02;;;4.60;99.90;;;;;;5060327;28;20194;-80
2021/12/04 11:41:33;;;;;;;39.22;22.02;;;4.60;99.90;;;;;;5062112;28;20044;-79
2021/12/04 11:44:04;;;;;;;41.85;23.63;;;4.60;99.90;;;;;;5056979;28;20480;-80
2021/12/04 11:46:41;;;;;;;52.97;24.98;;;4.70;99.90;;;;;;5060117;28;20045;-80
2021/12/04 11:49:07;;;;;;;39.65;23.60;;;4.70;99.90;;;;;;5054009;28;20059;-80
2021/12/04 11:51:34;;;;;;;44.65;24.88;;;4.70;99.90;;;;;;5076962;28;20048;-81
2021/12/04 11:54:00;;;;;;;36.28;22.63;;;4.70;99.90;;;;;;5054555;28;20056;-80
2021/12/04 11:56:27;;;;;;;44.65;24.15;;;4.70;99.90;;;;;;5055026;28;20044;-80
2021/12/04 11:58:53;;;;;;;44.97;25.88;;;4.70;99.90;;;;;;5069537;28;20052;-80
2021/12/04 12:01:20;;;;;;;43.63;26.40;;;4.70;99.90;;;;;;5061565;28;20045;-79
2021/12/04 12:03:47;;;;;;;40.08;25.48;;;4.70;99.90;;;;;;5060221;28;20468;-81
2021/12/04 12:06:13;;;;;;;47.38;26.15;;;4.70;99.90;;;;;;5060174;28;20056;-81
2021/12/04 12:08:40;;;;;;;46.83;27.15;;;4.70;99.90;;;;;;5071684;28;20057;-81
2021/12/04 12:11:07;;;;;;;43.97;24.33;;;4.70;99.90;;;;;;5056510;28;20124;-80
2021/12/04 12:13:34;;;;;;;43.45;24.30;;;4.70;99.90;;;;;;5058728;28;20080;-80
2021/12/04 12:16:01;;;;;;;48.47;25.80;;;4.70;99.90;;;;;;5059989;28;20106;-81
2021/12/04 12:18:27;;;;;;;49.20;25.42;;;4.70;99.90;;;;;;5058878;28;20151;-81
2021/12/04 12:20:56;;;;;;;41.03;24.15;;;4.70;99.90;;;;;;5061121;28;20432;-81
2021/12/04 12:23:26;;;;;;;43.10;25.17;;;4.70;99.90;;;;;;5061641;28;20041;-80
2021/12/04 12:26:12;;;;;;;41.30;21.27;;;4.70;99.90;;;;;;5058845;28;20056;-81
2021/12/04 12:34:07;;;;;;;51.53;24.58;;;4.70;99.90;;;;;;5057154;28;20045;-81
2021/12/04 12:36:33;;;;;;;43.15;23.80;;;4.70;99.90;;;;;;5058151;28;20079;-81
2021/12/04 12:38:59;;;;;;;37.08;22.58;;;4.70;99.90;;;;;;5059236;28;20098;-81
2021/12/04 12:41:26;;;;;;;35.70;22.83;;;4.70;99.90;;;;;;5059618;28;20056;-81
2021/12/04 12:43:52;;;;;;;48.30;24.70;;;4.70;99.90;;;;;;5063721;28;20055;-80
2021/12/04 12:46:19;;;;;;;38.50;22.20;;;4.70;99.90;;;;;;5049138;28;20053;-81
2021/12/04 12:48:46;;;;;;;32.70;19.88;;;4.80;99.90;;;;;;5060048;28;20049;-79
2021/12/04 12:51:12;;;;;;;37.03;22.10;;;4.80;99.90;;;;;;5062345;28;20575;-79
2021/12/04 12:53:39;;;;;;;40.90;22.17;;;4.80;99.90;;;;;;5063820;28;20503;-80
2021/12/04 12:56:05;;;;;;;39.50;22.00;;;4.80;99.90;;;;;;5060903;28;20044;-80
2021/12/04 12:58:38;;;;;;;37.30;21.17;;;4.80;99.90;;;;;;5075581;28;20052;-81
2021/12/04 13:12:09;;;;;;;38.28;21.63;;;4.70;99.90;;;;;;5022640;28;20563;-80
2021/12/04 13:14:35;;;;;;;32.78;19.50;;;4.70;99.90;;;;;;5053341;28;20077;-80
2021/12/04 13:17:02;;;;;;;42.05;21.90;;;4.70;99.90;;;;;;5055005;28;20048;-80
2021/12/04 13:19:28;;;;;;;31.88;19.63;;;4.70;99.90;;;;;;5056780;28;20498;-80
2021/12/04 13:21:55;;;;;;;31.30;18.80;;;4.70;99.90;;;;;;5059407;28;20076;-81
2021/12/04 13:24:21;;;;;;;30.67;19.60;;;4.70;99.90;;;;;;5053095;28;20152;-80
2021/12/04 13:26:48;;;;;;;31.15;19.50;;;4.70;99.90;;;;;;5056912;28;20051;-81
2021/12/04 13:29:14;;;;;;;36.50;18.88;;;4.70;99.90;;;;;;5053623;28;20056;-81
2021/12/04 13:31:41;;;;;;;34.42;20.30;;;4.70;99.90;;;;;;5061954;28;20041;-81
2021/12/04 13:34:08;;;;;;;31.77;21.20;;;4.70;99.90;;;;;;5059894;28;20064;-80
2021/12/04 13:36:34;;;;;;;31.58;19.20;;;4.70;99.90;;;;;;5058190;28;20079;-79
2021/12/04 13:39:01;;;;;;;34.15;21.17;;;4.70;99.90;;;;;;5062953;28;20052;-80
2021/12/04 13:41:28;;;;;;;28.83;20.23;;;4.70;99.90;;;;;;5059810;28;20045;-79
2021/12/04 13:43:55;;;;;;;34.45;21.88;;;4.60;99.90;;;;;;5053857;28;20054;-82
2021/12/04 13:46:21;;;;;;;39.35;21.08;;;4.60;99.90;;;;;;5055904;28;20048;-81
2021/12/04 13:48:48;;;;;;;41.67;21.95;;;4.60;99.90;;;;;;5056156;28;20496;-81
2021/12/04 13:51:14;;;;;;;39.85;22.50;;;4.60;99.90;;;;;;5058772;28;20501;-80
2021/12/04 13:53:41;;;;;;;40.88;22.08;;;4.60;99.90;;;;;;5065939;28;20045;-81
2021/12/04 13:56:07;;;;;;;43.95;23.88;;;4.70;99.90;;;;;;5069560;28;20057;-81
2021/12/04 13:58:34;;;;;;;50.50;26.15;;;4.70;99.90;;;;;;5067616;28;20043;-80
2021/12/04 14:01:01;;;;;;;48.58;24.98;;;4.70;99.90;;;;;;5055003;28;20060;-80
2021/12/04 14:03:27;;;;;;;48.83;26.83;;;4.70;99.90;;;;;;5053337;28;20049;-80
2021/12/04 14:05:54;;;;;;;50.50;27.40;;;4.70;99.90;;;;;;5056918;28;20049;-80
2021/12/04 14:08:20;;;;;;;47.45;26.83;;;4.70;99.90;;;;;;5055142;28;20057;-80
2021/12/04 14:10:47;;;;;;;46.47;26.75;;;4.60;99.90;;;;;;5066416;28;20056;-80
2021/12/04 14:13:13;;;;;;;48.47;26.90;;;4.60;99.90;;;;;;5068458;28;20052;-77
2021/12/04 14:15:43;;;;;;;49.40;27.40;;;4.60;99.90;;;;;;5062668;28;20059;-80
2021/12/04 14:18:10;;;;;;;48.72;26.38;;;4.60;99.90;;;;;;5059227;28;20118;-81
2021/12/04 14:20:37;;;;;;;59.20;27.48;;;4.60;99.90;;;;;;5065176;28;20498;-80
2021/12/04 14:23:03;;;;;;;48.00;25.67;;;4.60;99.90;;;;;;5062641;28;20048;-80
2021/12/04 14:25:30;;;;;;;46.63;26.45;;;4.70;99.90;;;;;;5059391;28;20060;-80
2021/12/04 14:27:56;;;;;;;44.85;25.17;;;4.70;99.90;;;;;;5056040;28;20087;-80
2021/12/04 14:30:23;;;;;;;57.13;26.58;;;4.70;99.90;;;;;;5060379;28;20053;-80
2021/12/04 14:32:53;;;;;;;45.70;24.20;;;4.70;99.90;;;;;;5055425;28;20049;-80
2021/12/04 14:35:19;;;;;;;41.55;24.48;;;4.70;99.90;;;;;;5052702;28;20146;-80
2021/12/04 14:37:47;;;;;;;44.38;24.90;;;4.70;99.90;;;;;;5060994;28;20044;-80
2021/12/04 14:40:13;;;;;;;38.28;20.90;;;4.70;99.90;;;;;;5061573;28;20536;-80
2021/12/04 14:42:40;;;;;;;45.97;21.90;;;4.70;99.90;;;;;;5057192;28;20060;-80
2021/12/04 14:45:06;;;;;;;46.28;22.50;;;4.70;99.90;;;;;;5053267;28;20052;-79
2021/12/04 14:47:35;;;;;;;46.50;23.42;;;4.80;99.90;;;;;;5057294;28;20052;-80
2021/12/04 14:50:02;;;;;;;39.47;21.85;;;4.70;99.90;;;;;;5055168;28;20928;-80
2021/12/04 14:52:28;;;;;;;39.03;22.75;;;4.70;99.90;;;;;;5053980;28;20579;-80
2021/12/04 14:54:55;;;;;;;45.72;23.15;;;4.70;99.90;;;;;;5047862;28;20677;-80